TimeEDT,TemperatureF,Dew PointF,Humidity,Sea Level PressureIn,VisibilityMPH,Wind Direction,Wind SpeedMPH,Gust SpeedMPH,PrecipitationIn,Events,Conditions,WindDirDegrees,DateUTC
12:15 AM,68.0,68.0,100,30.17,10.0,Calm,Calm,-,N/A,,Mostly Cloudy,0,2013-08-19 04:15:00
12:35 AM,68.0,68.0,100,30.17,10.0,Calm,Calm,-,N/A,,Overcast,0,2013-08-19 04:35:00
12:55 AM,68.0,68.0,100,30.17,10.0,Calm,Calm,-,N/A,,Overcast,0,2013-08-19 04:55:00
1:15 AM,68.0,68.0,100,30.16,10.0,Calm,Calm,-,N/A,,Mostly Cloudy,0,2013-08-19 05:15:00
1:35 AM,68.0,66.2,94,30.16,10.0,Calm,Calm,-,N/A,,Scattered Clouds,0,2013-08-19 05:35:00
1:55 AM,66.2,66.2,100,30.16,10.0,Calm,Calm,-,N/A,,Clear,0,2013-08-19 05:55:00
2:15 AM,66.2,66.2,100,30.15,10.0,SE,3.5,-,N/A,,Clear,140,2013-08-19 06:15:00
2:35 AM,66.2,66.2,100,30.15,10.0,Calm,Calm,-,N/A,,Clear,0,2013-08-19 06:35:00
2:55 AM,66.2,66.2,100,30.15,10.0,Calm,Calm,-,N/A,,Clear,0,2013-08-19 06:55:00
3:15 AM,64.4,64.4,100,30.15,10.0,Calm,Calm,-,N/A,,Clear,0,2013-08-19 07:15:00
3:35 AM,64.4,64.4,100,30.15,7.0,Calm,Calm,-,N/A,,Clear,0,2013-08-19 07:35:00
3:55 AM,64.4,64.4,100,30.15,10.0,Calm,Calm,-,N/A,,Scattered Clouds,0,2013-08-19 07:55:00
4:15 AM,64.4,64.4,100,30.15,10.0,Calm,Calm,-,N/A,,Overcast,0,2013-08-19 08:15:00
4:35 AM,64.4,64.4,100,30.15,10.0,Calm,Calm,-,N/A,,Overcast,0,2013-08-19 08:35:00
4:55 AM,64.4,64.4,100,30.15,10.0,Calm,Calm,-,N/A,,Overcast,0,2013-08-19 08:55:00
5:15 AM,64.4,64.4,100,30.15,10.0,Calm,Calm,-,N/A,,Overcast,0,2013-08-19 09:15:00
5:35 AM,64.4,64.4,100,30.15,10.0,Calm,Calm,-,N/A,,Overcast,0,2013-08-19 09:35:00
5:55 AM,64.4,64.4,100,30.15,10.0,Calm,Calm,-,N/A,,Mostly Cloudy,0,2013-08-19 09:55:00
6:15 AM,64.4,64.4,100,30.15,10.0,Calm,Calm,-,N/A,,Scattered Clouds,0,2013-08-19 10:15:00
6:35 AM,64.4,64.4,100,30.16,10.0,Calm,Calm,-,N/A,,Mostly Cloudy,0,2013-08-19 10:35:00
6:55 AM,64.4,64.4,100,30.16,10.0,Calm,Calm,-,N/A,,Overcast,0,2013-08-19 10:55:00
7:15 AM,64.4,64.4,100,30.16,10.0,Calm,Calm,-,N/A,,Overcast,0,2013-08-19 11:15:00
7:35 AM,64.4,64.4,100,30.17,10.0,Calm,Calm,-,N/A,,Overcast,0,2013-08-19 11:35:00
7:55 AM,66.2,64.4,94,30.17,10.0,Calm,Calm,-,N/A,,Overcast,0,2013-08-19 11:55:00
8:15 AM,66.2,66.2,100,30.17,10.0,Calm,Calm,-,N/A,,Overcast,0,2013-08-19 12:15:00
8:35 AM,66.2,66.2,100,30.16,10.0,Calm,Calm,-,N/A,,Overcast,0,2013-08-19 12:35:00
8:55 AM,68.0,68.0,100,30.17,10.0,Calm,Calm,-,N/A,,Overcast,0,2013-08-19 12:55:00
9:15 AM,69.8,68.0,94,30.17,10.0,Calm,Calm,-,N/A,,Overcast,0,2013-08-19 13:15:00
9:35 AM,69.8,68.0,94,30.17,10.0,Calm,Calm,-,N/A,,Overcast,0,2013-08-19 13:35:00
9:55 AM,69.8,68.0,94,30.17,10.0,Calm,Calm,-,N/A,,Overcast,0,2013-08-19 13:55:00
10:15 AM,73.4,68.0,83,30.17,10.0,Calm,Calm,-,N/A,,Mostly Cloudy,0,2013-08-19 14:15:00
10:35 AM,71.6,66.2,83,30.17,10.0,WSW,4.6,-,N/A,,Overcast,250,2013-08-19 14:35:00
10:55 AM,73.4,68.0,83,30.18,10.0,West,3.5,-,N/A,,Overcast,260,2013-08-19 14:55:00
11:15 AM,73.4,66.2,78,30.18,10.0,Calm,Calm,-,N/A,,Mostly Cloudy,0,2013-08-19 15:15:00
11:35 AM,75.2,66.2,73,30.18,10.0,Calm,Calm,-,N/A,,Mostly Cloudy,0,2013-08-19 15:35:00
11:55 AM,73.4,66.2,78,30.18,10.0,West,3.5,-,N/A,,Overcast,280,2013-08-19 15:55:00
12:15 PM,77.0,68.0,74,30.18,10.0,Calm,Calm,-,N/A,,Overcast,0,2013-08-19 16:15:00
12:35 PM,77.0,64.4,65,30.17,10.0,Calm,Calm,-,N/A,,Mostly Cloudy,0,2013-08-19 16:35:00
12:55 PM,77.0,64.4,65,30.16,10.0,Calm,Calm,-,N/A,,Mostly Cloudy,0,2013-08-19 16:55:00
1:15 PM,77.0,62.6,61,30.16,10.0,Calm,Calm,-,N/A,,Mostly Cloudy,0,2013-08-19 17:15:00
1:35 PM,78.8,66.2,65,30.15,10.0,South,3.5,-,N/A,,Mostly Cloudy,190,2013-08-19 17:35:00
1:55 PM,78.8,64.4,61,30.15,10.0,NW,3.5,-,N/A,,Mostly Cloudy,310,2013-08-19 17:55:00
2:15 PM,77.0,64.4,65,30.15,10.0,Calm,Calm,-,N/A,,Overcast,0,2013-08-19 18:15:00
2:35 PM,77.0,64.4,65,30.14,10.0,Calm,Calm,-,N/A,,Overcast,0,2013-08-19 18:35:00
2:55 PM,77.0,64.4,65,30.13,10.0,Calm,Calm,-,N/A,,Mostly Cloudy,0,2013-08-19 18:55:00
3:15 PM,78.8,64.4,61,30.13,10.0,SW,3.5,-,N/A,,Scattered Clouds,230,2013-08-19 19:15:00
3:35 PM,80.6,64.4,58,30.12,10.0,WSW,3.5,-,N/A,,Clear,250,2013-08-19 19:35:00
3:55 PM,82.4,62.6,51,30.12,10.0,ESE,4.6,-,N/A,,Clear,110,2013-08-19 19:55:00
4:15 PM,80.6,62.6,54,30.11,10.0,East,3.5,-,N/A,,Scattered Clouds,100,2013-08-19 20:15:00
4:35 PM,80.6,62.6,54,30.11,10.0,North,3.5,-,N/A,,Overcast,10,2013-08-19 20:35:00
4:55 PM,80.6,64.4,58,30.10,10.0,Calm,Calm,-,N/A,,Mostly Cloudy,0,2013-08-19 20:55:00
5:15 PM,80.6,62.6,54,30.10,10.0,WSW,3.5,-,N/A,,Scattered Clouds,250,2013-08-19 21:15:00
5:35 PM,80.6,62.6,54,30.09,10.0,Calm,Calm,-,N/A,,Scattered Clouds,0,2013-08-19 21:35:00
5:55 PM,82.4,62.6,51,30.09,10.0,South,3.5,-,N/A,,Mostly Cloudy,170,2013-08-19 21:55:00
6:15 PM,80.6,64.4,58,30.09,10.0,ENE,5.8,-,N/A,,Overcast,60,2013-08-19 22:15:00
6:35 PM,80.6,64.4,58,30.09,10.0,East,3.5,-,N/A,,Scattered Clouds,80,2013-08-19 22:35:00
6:55 PM,78.8,64.4,61,30.09,10.0,East,3.5,-,N/A,,Scattered Clouds,90,2013-08-19 22:55:00
7:15 PM,78.8,64.4,61,30.08,10.0,Calm,Calm,-,N/A,,Scattered Clouds,0,2013-08-19 23:15:00
7:35 PM,78.8,64.4,61,30.09,10.0,Calm,Calm,-,N/A,,Scattered Clouds,0,2013-08-19 23:35:00
7:55 PM,78.8,64.4,61,30.09,10.0,Calm,Calm,-,N/A,,Scattered Clouds,0,2013-08-19 23:55:00
8:15 PM,77.0,64.4,65,30.09,10.0,Calm,Calm,-,N/A,,Scattered Clouds,0,2013-08-20 00:15:00
8:35 PM,73.4,66.2,78,30.10,10.0,Calm,Calm,-,N/A,,Scattered Clouds,0,2013-08-20 00:35:00
8:55 PM,73.4,68.0,83,30.10,10.0,Calm,Calm,-,N/A,,Mostly Cloudy,0,2013-08-20 00:55:00
9:15 PM,71.6,68.0,88,30.10,10.0,Calm,Calm,-,N/A,,Mostly Cloudy,0,2013-08-20 01:15:00
9:35 PM,71.6,68.0,88,30.11,10.0,Calm,Calm,-,N/A,,Scattered Clouds,0,2013-08-20 01:35:00
9:55 PM,71.6,69.8,94,30.12,10.0,Calm,Calm,-,N/A,,Mostly Cloudy,0,2013-08-20 01:55:00
10:15 PM,69.8,68.0,94,30.13,10.0,Calm,Calm,-,N/A,,Scattered Clouds,0,2013-08-20 02:15:00
10:35 PM,69.8,68.0,94,30.13,10.0,Calm,Calm,-,N/A,,Mostly Cloudy,0,2013-08-20 02:35:00
10:55 PM,69.8,68.0,94,30.13,10.0,Calm,Calm,-,N/A,,Overcast,0,2013-08-20 02:55:00
11:15 PM,69.8,68.0,94,30.13,10.0,Calm,Calm,-,N/A,,Overcast,0,2013-08-20 03:15:00
11:35 PM,69.8,68.0,94,30.14,10.0,Calm,Calm,-,N/A,,Overcast,0,2013-08-20 03:35:00
11:55 PM,69.8,68.0,94,30.13,10.0,Calm,Calm,-,N/A,,Overcast,0,2013-08-20 03:55:00